Overview Statistics Trail Chart Weather Telemetry Raw packets
 

This is the latest recevied weather packets stored in our database for station/object N2ZVN. If no packets are shown the sender has not sent any weather packets the latest 10 day(s).

<< 93 94 95 96 97 98 99 >>
Time Temp. Humidity Pressure Rain* Wind** Luminosity Snow
1788013880 20.56° C 67% 1024.9 hPa 0 mm - 187 W/m² -
1788013579 20.56° C 70% 1025 hPa 0 mm - 224 W/m² -
1788013274 20.56° C 69% 1025 hPa 0 mm - 184 W/m² -
1788012974 20° C 71% 1024.8 hPa 0 mm - 198 W/m² -
1788012668 20° C 70% 1024.8 hPa 0 mm - 175 W/m² -
1788012363 20° C 70% 1024.8 hPa 0 mm - 177 W/m² -
1788012058 20.56° C 72% 1024.7 hPa 0 mm - 133 W/m² -
1788011756 21.11° C 67% 1024.8 hPa 0 mm - 124 W/m² -
1788011452 21.11° C 67% 1024.8 hPa 0 mm - 189 W/m² -
1788011151 21.67° C 65% 1024.6 hPa 0 mm - 441 W/m² -
1788010846 21.11° C 67% 1024.6 hPa 0 mm - 462 W/m² -
1788010544 20° C 73% 1024.6 hPa 0 mm - 428 W/m² -
1788010240 20° C 70% 1024.7 hPa 0 mm - 406 W/m² -
1788009939 19.44° C 75% 1024.7 hPa 0 mm - 390 W/m² -
1788009638 18.89° C 75% 1024.7 hPa 0 mm - 356 W/m² -
1788009332 18.89° C 76% 1024.4 hPa 0 mm - 360 W/m² -
1788009027 18.89° C 76% 1024.6 hPa 0 mm - 336 W/m² -
1788008723 18.89° C 76% 1024.6 hPa 0 mm - 319 W/m² -
1788008422 18.89° C 77% 1024.5 hPa 0 mm - 299 W/m² -
1788008119 17.78° C 79% 1024.8 hPa 0 mm - 274 W/m² -
1788007818 17.78° C 81% 1024.6 hPa 0 mm - 261 W/m² -
1788007518 17.78° C 81% 1024.6 hPa 0 mm - 214 W/m² -
1788007217 17.78° C 79% 1024.7 hPa 0 mm - 226 W/m² -
1788006917 17.78° C 81% 1024.7 hPa 0 mm - 237 W/m² -
1788006617 17.22° C 83% 1024.5 hPa 0 mm - 226 W/m² -

* Rain latest hour (hover to see other rain measurements)
** Current wind speed in m/s (hover to see current wind gust speed)